sensor_id;sensor_type;location;lat;lon;timestamp;temperature;humidity
46890;DHT22;32625;51.080;16.970;2023-05-23T00:01:47;14.00;99.90
46890;DHT22;32625;51.080;16.970;2023-05-23T00:07:44;13.90;99.90
46890;DHT22;32625;51.080;16.970;2023-05-23T00:10:12;13.90;99.90
46890;DHT22;32625;51.080;16.970;2023-05-23T00:12:39;13.80;99.90
46890;DHT22;32625;51.080;16.970;2023-05-23T00:15:09;13.80;99.90
46890;DHT22;32625;51.080;16.970;2023-05-23T00:17:41;13.70;99.90
46890;DHT22;32625;51.080;16.970;2023-05-23T00:20:08;13.70;99.90
46890;DHT22;32625;51.080;16.970;2023-05-23T00:22:37;13.70;99.90
46890;DHT22;32625;51.080;16.970;2023-05-23T00:25:10;13.60;99.90
46890;DHT22;32625;51.080;16.970;2023-05-23T00:27:37;13.60;99.90
46890;DHT22;32625;51.080;16.970;2023-05-23T00:30:21;13.60;99.90
46890;DHT22;32625;51.080;16.970;2023-05-23T00:32:48;13.60;99.90
46890;DHT22;32625;51.080;16.970;2023-05-23T00:35:15;13.50;99.90
46890;DHT22;32625;51.080;16.970;2023-05-23T00:37:49;13.40;99.90
46890;DHT22;32625;51.080;16.970;2023-05-23T00:40:18;13.50;99.90
46890;DHT22;32625;51.080;16.970;2023-05-23T00:42:46;13.50;99.90
46890;DHT22;32625;51.080;16.970;2023-05-23T00:45:14;13.40;99.90
46890;DHT22;32625;51.080;16.970;2023-05-23T00:47:43;13.30;99.90
46890;DHT22;32625;51.080;16.970;2023-05-23T00:50:15;13.40;99.90
46890;DHT22;32625;51.080;16.970;2023-05-23T00:52:44;13.30;99.90
46890;DHT22;32625;51.080;16.970;2023-05-23T00:55:12;13.30;99.90
46890;DHT22;32625;51.080;16.970;2023-05-23T00:57:41;13.40;99.90
46890;DHT22;32625;51.080;16.970;2023-05-23T01:00:12;13.30;99.90
46890;DHT22;32625;51.080;16.970;2023-05-23T01:02:44;13.30;99.90
46890;DHT22;32625;51.080;16.970;2023-05-23T01:05:18;13.30;99.90
46890;DHT22;32625;51.080;16.970;2023-05-23T01:07:49;13.30;99.90
46890;DHT22;32625;51.080;16.970;2023-05-23T01:10:20;13.30;99.90
46890;DHT22;32625;51.080;16.970;2023-05-23T01:15:19;13.30;99.90
46890;DHT22;32625;51.080;16.970;2023-05-23T01:20:29;13.20;99.90
46890;DHT22;32625;51.080;16.970;2023-05-23T01:28:54;13.10;99.90
46890;DHT22;32625;51.080;16.970;2023-05-23T01:31:23;13.10;99.90
46890;DHT22;32625;51.080;16.970;2023-05-23T01:33:55;13.10;99.90
46890;DHT22;32625;51.080;16.970;2023-05-23T01:36:22;13.00;99.90
46890;DHT22;32625;51.080;16.970;2023-05-23T01:38:50;13.00;99.90
46890;DHT22;32625;51.080;16.970;2023-05-23T01:41:18;13.00;99.90
46890;DHT22;32625;51.080;16.970;2023-05-23T01:43:45;13.00;99.90
46890;DHT22;32625;51.080;16.970;2023-05-23T01:46:14;13.00;99.90
46890;DHT22;32625;51.080;16.970;2023-05-23T01:49:11;13.00;99.90
46890;DHT22;32625;51.080;16.970;2023-05-23T01:51:38;12.90;99.90
46890;DHT22;32625;51.080;16.970;2023-05-23T01:54:06;12.90;99.90
46890;DHT22;32625;51.080;16.970;2023-05-23T01:56:36;12.80;99.90
46890;DHT22;32625;51.080;16.970;2023-05-23T01:59:03;12.70;99.90
46890;DHT22;32625;51.080;16.970;2023-05-23T02:01:31;12.80;99.90
46890;DHT22;32625;51.080;16.970;2023-05-23T02:03:59;12.70;99.90
46890;DHT22;32625;51.080;16.970;2023-05-23T02:06:26;12.70;99.90
46890;DHT22;32625;51.080;16.970;2023-05-23T02:08:53;12.70;99.90
46890;DHT22;32625;51.080;16.970;2023-05-23T02:11:20;12.70;99.90
46890;DHT22;32625;51.080;16.970;2023-05-23T02:13:49;12.70;99.90
46890;DHT22;32625;51.080;16.970;2023-05-23T02:16:19;12.60;99.90
46890;DHT22;32625;51.080;16.970;2023-05-23T02:18:46;12.50;99.90
46890;DHT22;32625;51.080;16.970;2023-05-23T02:21:15;12.60;99.90
46890;DHT22;32625;51.080;16.970;2023-05-23T02:23:42;12.60;99.90
46890;DHT22;32625;51.080;16.970;2023-05-23T02:26:09;12.50;99.90
46890;DHT22;32625;51.080;16.970;2023-05-23T02:28:36;12.50;99.90
46890;DHT22;32625;51.080;16.970;2023-05-23T02:31:03;12.50;99.90
46890;DHT22;32625;51.080;16.970;2023-05-23T02:33:31;12.50;99.90
46890;DHT22;32625;51.080;16.970;2023-05-23T02:35:58;12.50;99.90
46890;DHT22;32625;51.080;16.970;2023-05-23T02:38:25;12.50;99.90
46890;DHT22;32625;51.080;16.970;2023-05-23T02:40:54;12.40;99.90
46890;DHT22;32625;51.080;16.970;2023-05-23T02:43:23;12.50;99.90
46890;DHT22;32625;51.080;16.970;2023-05-23T02:45:50;12.40;99.90
46890;DHT22;32625;51.080;16.970;2023-05-23T02:48:18;12.40;99.90
46890;DHT22;32625;51.080;16.970;2023-05-23T02:50:46;12.40;99.90
46890;DHT22;32625;51.080;16.970;2023-05-23T02:53:13;12.40;99.90
46890;DHT22;32625;51.080;16.970;2023-05-23T02:55:40;12.40;99.90
46890;DHT22;32625;51.080;16.970;2023-05-23T02:58:09;12.40;99.90
46890;DHT22;32625;51.080;16.970;2023-05-23T03:00:38;12.40;99.90
46890;DHT22;32625;51.080;16.970;2023-05-23T03:03:06;12.40;99.90
46890;DHT22;32625;51.080;16.970;2023-05-23T03:05:33;12.30;99.90
46890;DHT22;32625;51.080;16.970;2023-05-23T03:08:01;12.20;99.90
46890;DHT22;32625;51.080;16.970;2023-05-23T03:10:28;12.30;99.90
46890;DHT22;32625;51.080;16.970;2023-05-23T03:12:56;12.30;99.90
46890;DHT22;32625;51.080;16.970;2023-05-23T03:15:23;12.30;99.90
46890;DHT22;32625;51.080;16.970;2023-05-23T03:17:50;12.40;99.90
46890;DHT22;32625;51.080;16.970;2023-05-23T03:20:18;12.40;99.90
46890;DHT22;32625;51.080;16.970;2023-05-23T03:22:45;12.40;99.90
46890;DHT22;32625;51.080;16.970;2023-05-23T03:25:14;12.40;99.90
46890;DHT22;32625;51.080;16.970;2023-05-23T03:27:42;12.40;99.90
46890;DHT22;32625;51.080;16.970;2023-05-23T03:30:11;12.40;99.90
46890;DHT22;32625;51.080;16.970;2023-05-23T03:32:38;12.50;99.90
46890;DHT22;32625;51.080;16.970;2023-05-23T03:35:07;12.50;99.90
46890;DHT22;32625;51.080;16.970;2023-05-23T03:37:41;12.50;99.90
46890;DHT22;32625;51.080;16.970;2023-05-23T03:40:09;12.60;99.90
46890;DHT22;32625;51.080;16.970;2023-05-23T03:42:38;12.60;99.90
46890;DHT22;32625;51.080;16.970;2023-05-23T03:45:07;12.70;99.90
46890;DHT22;32625;51.080;16.970;2023-05-23T03:47:35;12.70;99.90
46890;DHT22;32625;51.080;16.970;2023-05-23T03:50:08;12.70;99.90
46890;DHT22;32625;51.080;16.970;2023-05-23T03:52:36;12.70;99.90
46890;DHT22;32625;51.080;16.970;2023-05-23T03:55:39;12.80;99.90
46890;DHT22;32625;51.080;16.970;2023-05-23T03:58:07;12.80;99.90
46890;DHT22;32625;51.080;16.970;2023-05-23T04:00:35;12.90;99.90
46890;DHT22;32625;51.080;16.970;2023-05-23T04:03:05;12.90;99.90
46890;DHT22;32625;51.080;16.970;2023-05-23T04:05:35;12.80;99.90
46890;DHT22;32625;51.080;16.970;2023-05-23T04:08:02;12.80;99.90
46890;DHT22;32625;51.080;16.970;2023-05-23T04:10:30;12.90;99.90
46890;DHT22;32625;51.080;16.970;2023-05-23T04:12:58;12.90;99.90
46890;DHT22;32625;51.080;16.970;2023-05-23T04:15:27;13.00;99.90
46890;DHT22;32625;51.080;16.970;2023-05-23T04:18:05;13.00;99.90
46890;DHT22;32625;51.080;16.970;2023-05-23T04:20:43;13.00;99.90
46890;DHT22;32625;51.080;16.970;2023-05-23T04:23:11;13.00;99.90
46890;DHT22;32625;51.080;16.970;2023-05-23T04:25:40;13.10;99.90
46890;DHT22;32625;51.080;16.970;2023-05-23T04:28:33;13.80;99.90
46890;DHT22;32625;51.080;16.970;2023-05-23T04:31:01;13.20;99.90
46890;DHT22;32625;51.080;16.970;2023-05-23T04:33:32;13.20;99.90
46890;DHT22;32625;51.080;16.970;2023-05-23T04:39:29;13.40;99.90
46890;DHT22;32625;51.080;16.970;2023-05-23T04:42:21;13.50;99.90
46890;DHT22;32625;51.080;16.970;2023-05-23T04:45:17;13.60;99.90
46890;DHT22;32625;51.080;16.970;2023-05-23T04:47:54;13.60;99.90
46890;DHT22;32625;51.080;16.970;2023-05-23T04:50:48;13.70;99.90
46890;DHT22;32625;51.080;16.970;2023-05-23T04:53:17;13.80;99.90
46890;DHT22;32625;51.080;16.970;2023-05-23T04:55:45;13.80;99.90
46890;DHT22;32625;51.080;16.970;2023-05-23T04:58:15;13.90;99.90
46890;DHT22;32625;51.080;16.970;2023-05-23T05:00:46;14.00;99.90
46890;DHT22;32625;51.080;16.970;2023-05-23T05:03:17;14.00;99.90
46890;DHT22;32625;51.080;16.970;2023-05-23T05:05:46;14.10;99.90
46890;DHT22;32625;51.080;16.970;2023-05-23T05:08:14;14.20;99.90
46890;DHT22;32625;51.080;16.970;2023-05-23T05:10:45;14.20;99.90
46890;DHT22;32625;51.080;16.970;2023-05-23T05:13:14;14.30;99.90
46890;DHT22;32625;51.080;16.970;2023-05-23T05:15:55;14.30;99.90
46890;DHT22;32625;51.080;16.970;2023-05-23T05:18:27;14.40;99.90
46890;DHT22;32625;51.080;16.970;2023-05-23T05:24:15;14.50;99.90
46890;DHT22;32625;51.080;16.970;2023-05-23T05:26:43;14.60;99.90
46890;DHT22;32625;51.080;16.970;2023-05-23T05:29:15;14.70;99.90
46890;DHT22;32625;51.080;16.970;2023-05-23T05:31:43;14.80;99.90
46890;DHT22;32625;51.080;16.970;2023-05-23T05:34:11;14.80;99.90
46890;DHT22;32625;51.080;16.970;2023-05-23T05:36:39;14.90;99.90
46890;DHT22;32625;51.080;16.970;2023-05-23T05:39:18;14.90;99.90
46890;DHT22;32625;51.080;16.970;2023-05-23T05:41:47;15.00;99.90
46890;DHT22;32625;51.080;16.970;2023-05-23T05:44:14;15.00;99.90
46890;DHT22;32625;51.080;16.970;2023-05-23T05:46:42;15.10;99.90
46890;DHT22;32625;51.080;16.970;2023-05-23T05:49:09;15.20;99.90
46890;DHT22;32625;51.080;16.970;2023-05-23T05:51:38;15.30;99.90
46890;DHT22;32625;51.080;16.970;2023-05-23T05:54:06;15.30;99.90
46890;DHT22;32625;51.080;16.970;2023-05-23T05:56:33;15.50;99.90
46890;DHT22;32625;51.080;16.970;2023-05-23T05:59:00;15.50;99.90
46890;DHT22;32625;51.080;16.970;2023-05-23T06:01:28;15.70;99.90
46890;DHT22;32625;51.080;16.970;2023-05-23T06:03:56;15.80;99.90
46890;DHT22;32625;51.080;16.970;2023-05-23T06:06:24;15.80;99.90
46890;DHT22;32625;51.080;16.970;2023-05-23T06:08:52;15.90;99.90
46890;DHT22;32625;51.080;16.970;2023-05-23T06:11:21;16.00;99.90
46890;DHT22;32625;51.080;16.970;2023-05-23T06:13:48;16.00;99.90
46890;DHT22;32625;51.080;16.970;2023-05-23T06:16:22;16.00;99.90
46890;DHT22;32625;51.080;16.970;2023-05-23T06:18:49;15.90;99.90
46890;DHT22;32625;51.080;16.970;2023-05-23T06:21:17;15.90;99.90
46890;DHT22;32625;51.080;16.970;2023-05-23T06:23:48;15.80;99.90
46890;DHT22;32625;51.080;16.970;2023-05-23T06:26:15;15.80;99.90
46890;DHT22;32625;51.080;16.970;2023-05-23T06:28:43;15.80;99.90
46890;DHT22;32625;51.080;16.970;2023-05-23T06:31:11;15.80;99.90
46890;DHT22;32625;51.080;16.970;2023-05-23T06:33:38;15.80;99.90
46890;DHT22;32625;51.080;16.970;2023-05-23T06:36:06;15.80;99.90
46890;DHT22;32625;51.080;16.970;2023-05-23T06:38:33;15.80;99.90
46890;DHT22;32625;51.080;16.970;2023-05-23T06:41:10;15.90;99.90
46890;DHT22;32625;51.080;16.970;2023-05-23T06:43:38;16.10;99.90
46890;DHT22;32625;51.080;16.970;2023-05-23T06:46:18;16.30;99.90
46890;DHT22;32625;51.080;16.970;2023-05-23T06:48:46;16.60;99.90
46890;DHT22;32625;51.080;16.970;2023-05-23T06:51:13;16.80;99.90
46890;DHT22;32625;51.080;16.970;2023-05-23T06:53:41;16.90;99.90
46890;DHT22;32625;51.080;16.970;2023-05-23T06:56:09;16.90;99.90
46890;DHT22;32625;51.080;16.970;2023-05-23T06:58:50;17.00;99.90
46890;DHT22;32625;51.080;16.970;2023-05-23T07:01:30;17.00;99.90
46890;DHT22;32625;51.080;16.970;2023-05-23T07:03:58;17.10;99.90
46890;DHT22;32625;51.080;16.970;2023-05-23T07:06:25;17.20;99.90
46890;DHT22;32625;51.080;16.970;2023-05-23T07:08:56;17.40;99.90
46890;DHT22;32625;51.080;16.970;2023-05-23T07:11:26;17.70;99.90
46890;DHT22;32625;51.080;16.970;2023-05-23T07:13:58;17.80;99.90
46890;DHT22;32625;51.080;16.970;2023-05-23T07:16:38;18.00;99.90
46890;DHT22;32625;51.080;16.970;2023-05-23T07:19:07;18.20;99.90
46890;DHT22;32625;51.080;16.970;2023-05-23T07:21:41;18.20;99.90
46890;DHT22;32625;51.080;16.970;2023-05-23T07:24:09;18.30;99.90
46890;DHT22;32625;51.080;16.970;2023-05-23T07:26:37;18.30;99.90
46890;DHT22;32625;51.080;16.970;2023-05-23T07:29:05;18.20;99.90
46890;DHT22;32625;51.080;16.970;2023-05-23T07:31:33;18.20;99.90
46890;DHT22;32625;51.080;16.970;2023-05-23T07:34:00;18.10;99.90
46890;DHT22;32625;51.080;16.970;2023-05-23T07:36:48;18.10;99.90
46890;DHT22;32625;51.080;16.970;2023-05-23T07:42:37;18.10;99.90
46890;DHT22;32625;51.080;16.970;2023-05-23T07:45:05;18.10;99.90
46890;DHT22;32625;51.080;16.970;2023-05-23T07:47:34;18.20;99.90
46890;DHT22;32625;51.080;16.970;2023-05-23T07:50:02;18.20;99.90
46890;DHT22;32625;51.080;16.970;2023-05-23T07:52:30;18.20;99.90
46890;DHT22;32625;51.080;16.970;2023-05-23T07:54:58;18.30;99.90
46890;DHT22;32625;51.080;16.970;2023-05-23T07:57:27;18.30;99.90
46890;DHT22;32625;51.080;16.970;2023-05-23T07:59:54;18.30;99.90
46890;DHT22;32625;51.080;16.970;2023-05-23T08:02:24;18.40;99.90
46890;DHT22;32625;51.080;16.970;2023-05-23T08:04:52;18.50;99.90
46890;DHT22;32625;51.080;16.970;2023-05-23T08:07:20;18.50;99.90
46890;DHT22;32625;51.080;16.970;2023-05-23T08:09:59;18.60;99.90
46890;DHT22;32625;51.080;16.970;2023-05-23T08:12:27;18.50;99.90
46890;DHT22;32625;51.080;16.970;2023-05-23T08:18:27;18.40;99.90
46890;DHT22;32625;51.080;16.970;2023-05-23T08:20:57;18.20;99.90
46890;DHT22;32625;51.080;16.970;2023-05-23T08:23:33;18.20;99.90
46890;DHT22;32625;51.080;16.970;2023-05-23T08:26:00;18.10;99.90
46890;DHT22;32625;51.080;16.970;2023-05-23T08:28:56;18.10;99.90
46890;DHT22;32625;51.080;16.970;2023-05-23T08:31:23;18.00;99.90
46890;DHT22;32625;51.080;16.970;2023-05-23T08:33:51;18.00;99.90
46890;DHT22;32625;51.080;16.970;2023-05-23T08:36:18;17.90;99.90
46890;DHT22;32625;51.080;16.970;2023-05-23T08:38:46;17.90;99.90
46890;DHT22;32625;51.080;16.970;2023-05-23T08:41:22;17.90;99.90
46890;DHT22;32625;51.080;16.970;2023-05-23T08:43:57;17.80;99.90
46890;DHT22;32625;51.080;16.970;2023-05-23T08:46:32;17.90;99.90
46890;DHT22;32625;51.080;16.970;2023-05-23T08:49:04;17.90;99.90
46890;DHT22;32625;51.080;16.970;2023-05-23T08:51:34;17.90;99.90
46890;DHT22;32625;51.080;16.970;2023-05-23T08:54:10;17.90;99.90
46890;DHT22;32625;51.080;16.970;2023-05-23T08:56:42;17.90;99.90
46890;DHT22;32625;51.080;16.970;2023-05-23T08:59:13;17.90;99.90
46890;DHT22;32625;51.080;16.970;2023-05-23T09:01:42;17.90;99.90
46890;DHT22;32625;51.080;16.970;2023-05-23T09:04:40;17.90;99.90
46890;DHT22;32625;51.080;16.970;2023-05-23T09:07:19;17.80;99.90
46890;DHT22;32625;51.080;16.970;2023-05-23T09:13:07;17.50;99.90
46890;DHT22;32625;51.080;16.970;2023-05-23T09:15:37;17.40;99.90
46890;DHT22;32625;51.080;16.970;2023-05-23T09:18:04;17.20;99.90
46890;DHT22;32625;51.080;16.970;2023-05-23T09:20:33;17.20;99.90
46890;DHT22;32625;51.080;16.970;2023-05-23T09:23:07;17.10;99.90
46890;DHT22;32625;51.080;16.970;2023-05-23T09:25:45;17.10;99.90
46890;DHT22;32625;51.080;16.970;2023-05-23T09:28:13;17.10;99.90
46890;DHT22;32625;51.080;16.970;2023-05-23T09:30:41;17.10;99.90
46890;DHT22;32625;51.080;16.970;2023-05-23T09:33:08;17.00;99.90
46890;DHT22;32625;51.080;16.970;2023-05-23T09:35:43;17.00;99.90
46890;DHT22;32625;51.080;16.970;2023-05-23T09:38:10;17.10;99.90
46890;DHT22;32625;51.080;16.970;2023-05-23T09:40:43;17.10;99.90
46890;DHT22;32625;51.080;16.970;2023-05-23T09:43:11;17.10;99.90
46890;DHT22;32625;51.080;16.970;2023-05-23T09:45:38;17.10;99.90
46890;DHT22;32625;51.080;16.970;2023-05-23T09:48:11;17.10;99.90
46890;DHT22;32625;51.080;16.970;2023-05-23T09:50:40;17.10;99.90
46890;DHT22;32625;51.080;16.970;2023-05-23T09:53:09;17.10;99.90
46890;DHT22;32625;51.080;16.970;2023-05-23T09:55:37;17.10;99.90
46890;DHT22;32625;51.080;16.970;2023-05-23T09:58:07;17.20;99.90
46890;DHT22;32625;51.080;16.970;2023-05-23T10:00:35;17.20;99.90
46890;DHT22;32625;51.080;16.970;2023-05-23T10:03:10;17.20;99.90
46890;DHT22;32625;51.080;16.970;2023-05-23T10:05:47;17.20;99.90
46890;DHT22;32625;51.080;16.970;2023-05-23T10:08:29;17.20;99.90
46890;DHT22;32625;51.080;16.970;2023-05-23T10:13:48;17.30;99.90
46890;DHT22;32625;51.080;16.970;2023-05-23T10:16:33;17.30;99.90
46890;DHT22;32625;51.080;16.970;2023-05-23T10:19:16;17.30;99.90
46890;DHT22;32625;51.080;16.970;2023-05-23T10:21:49;17.40;99.90
46890;DHT22;32625;51.080;16.970;2023-05-23T10:24:23;17.40;99.90
46890;DHT22;32625;51.080;16.970;2023-05-23T10:26:51;17.50;99.90
46890;DHT22;32625;51.080;16.970;2023-05-23T10:29:23;17.70;99.90
46890;DHT22;32625;51.080;16.970;2023-05-23T10:31:51;17.70;99.90
46890;DHT22;32625;51.080;16.970;2023-05-23T10:34:31;17.80;99.90
46890;DHT22;32625;51.080;16.970;2023-05-23T10:37:11;18.00;99.90
46890;DHT22;32625;51.080;16.970;2023-05-23T10:40:10;18.10;99.90
46890;DHT22;32625;51.080;16.970;2023-05-23T10:45:20;18.30;99.90
46890;DHT22;32625;51.080;16.970;2023-05-23T10:47:49;18.40;99.90
46890;DHT22;32625;51.080;16.970;2023-05-23T10:50:33;18.50;99.90
46890;DHT22;32625;51.080;16.970;2023-05-23T10:53:04;18.60;99.90
46890;DHT22;32625;51.080;16.970;2023-05-23T10:55:34;18.60;99.90
46890;DHT22;32625;51.080;16.970;2023-05-23T10:58:15;18.60;99.90
46890;DHT22;32625;51.080;16.970;2023-05-23T11:01:12;18.70;99.90
46890;DHT22;32625;51.080;16.970;2023-05-23T11:06:48;19.00;99.90
46890;DHT22;32625;51.080;16.970;2023-05-23T11:09:19;19.10;99.90
46890;DHT22;32625;51.080;16.970;2023-05-23T11:17:17;19.30;99.90
46890;DHT22;32625;51.080;16.970;2023-05-23T11:20:14;19.30;99.90
46890;DHT22;32625;51.080;16.970;2023-05-23T11:22:52;19.40;99.90
46890;DHT22;32625;51.080;16.970;2023-05-23T11:28:55;19.60;99.90
46890;DHT22;32625;51.080;16.970;2023-05-23T11:31:24;19.70;99.90
46890;DHT22;32625;51.080;16.970;2023-05-23T11:33:51;19.70;99.90
46890;DHT22;32625;51.080;16.970;2023-05-23T11:36:28;19.80;99.90
46890;DHT22;32625;51.080;16.970;2023-05-23T11:38:56;19.90;99.90
46890;DHT22;32625;51.080;16.970;2023-05-23T11:41:31;20.00;99.90
46890;DHT22;32625;51.080;16.970;2023-05-23T11:43:59;20.00;99.90
46890;DHT22;32625;51.080;16.970;2023-05-23T11:46:27;19.90;99.90
46890;DHT22;32625;51.080;16.970;2023-05-23T11:48:56;19.80;99.90
46890;DHT22;32625;51.080;16.970;2023-05-23T11:51:23;19.70;99.90
46890;DHT22;32625;51.080;16.970;2023-05-23T11:53:50;19.80;99.90
46890;DHT22;32625;51.080;16.970;2023-05-23T11:56:18;19.80;99.90
46890;DHT22;32625;51.080;16.970;2023-05-23T11:58:45;19.90;99.90
46890;DHT22;32625;51.080;16.970;2023-05-23T12:01:12;19.90;99.90
46890;DHT22;32625;51.080;16.970;2023-05-23T12:03:52;20.00;99.90
46890;DHT22;32625;51.080;16.970;2023-05-23T12:06:23;19.90;99.90
46890;DHT22;32625;51.080;16.970;2023-05-23T12:08:51;19.70;99.90
46890;DHT22;32625;51.080;16.970;2023-05-23T12:11:18;19.60;99.90
46890;DHT22;32625;51.080;16.970;2023-05-23T12:13:45;19.60;99.90
46890;DHT22;32625;51.080;16.970;2023-05-23T12:16:13;19.60;99.90
46890;DHT22;32625;51.080;16.970;2023-05-23T12:18:42;19.60;99.90
46890;DHT22;32625;51.080;16.970;2023-05-23T12:21:16;19.50;99.90
46890;DHT22;32625;51.080;16.970;2023-05-23T12:23:44;19.70;99.90
46890;DHT22;32625;51.080;16.970;2023-05-23T12:26:11;19.70;99.90
46890;DHT22;32625;51.080;16.970;2023-05-23T12:29:03;19.70;99.90
46890;DHT22;32625;51.080;16.970;2023-05-23T12:31:30;19.80;99.90
46890;DHT22;32625;51.080;16.970;2023-05-23T12:33:59;19.90;99.90
46890;DHT22;32625;51.080;16.970;2023-05-23T12:36:28;19.90;99.90
46890;DHT22;32625;51.080;16.970;2023-05-23T12:39:05;20.00;99.90
46890;DHT22;32625;51.080;16.970;2023-05-23T12:41:33;19.90;99.90
46890;DHT22;32625;51.080;16.970;2023-05-23T12:44:01;20.20;99.90
46890;DHT22;32625;51.080;16.970;2023-05-23T12:46:29;20.30;99.90
46890;DHT22;32625;51.080;16.970;2023-05-23T12:48:56;20.40;99.90
46890;DHT22;32625;51.080;16.970;2023-05-23T12:51:24;20.40;99.90
46890;DHT22;32625;51.080;16.970;2023-05-23T12:53:54;20.50;99.90
46890;DHT22;32625;51.080;16.970;2023-05-23T12:56:23;20.40;99.90
46890;DHT22;32625;51.080;16.970;2023-05-23T12:58:50;20.20;99.90
46890;DHT22;32625;51.080;16.970;2023-05-23T13:01:19;20.10;99.90
46890;DHT22;32625;51.080;16.970;2023-05-23T13:03:46;19.90;99.90
46890;DHT22;32625;51.080;16.970;2023-05-23T13:06:13;19.90;99.90
46890;DHT22;32625;51.080;16.970;2023-05-23T13:08:40;19.90;99.90
46890;DHT22;32625;51.080;16.970;2023-05-23T13:11:08;20.00;99.90
46890;DHT22;32625;51.080;16.970;2023-05-23T13:13:35;20.30;99.90
46890;DHT22;32625;51.080;16.970;2023-05-23T13:16:03;20.40;99.90
46890;DHT22;32625;51.080;16.970;2023-05-23T13:18:30;20.80;99.90
46890;DHT22;32625;51.080;16.970;2023-05-23T13:25:25;21.10;99.90
46890;DHT22;32625;51.080;16.970;2023-05-23T13:27:52;21.40;99.90
46890;DHT22;32625;51.080;16.970;2023-05-23T13:30:21;21.50;99.90
46890;DHT22;32625;51.080;16.970;2023-05-23T13:32:49;21.50;99.90
46890;DHT22;32625;51.080;16.970;2023-05-23T13:35:18;21.70;99.90
46890;DHT22;32625;51.080;16.970;2023-05-23T13:37:45;22.00;99.90
46890;DHT22;32625;51.080;16.970;2023-05-23T13:40:17;22.30;99.90
46890;DHT22;32625;51.080;16.970;2023-05-23T13:42:52;22.50;99.90
46890;DHT22;32625;51.080;16.970;2023-05-23T13:45:19;22.40;99.90
46890;DHT22;32625;51.080;16.970;2023-05-23T13:47:49;22.40;99.90
46890;DHT22;32625;51.080;16.970;2023-05-23T13:50:16;22.20;99.90
46890;DHT22;32625;51.080;16.970;2023-05-23T13:52:44;21.90;99.90
46890;DHT22;32625;51.080;16.970;2023-05-23T13:55:15;21.70;99.90
46890;DHT22;32625;51.080;16.970;2023-05-23T13:57:50;21.70;99.90
46890;DHT22;32625;51.080;16.970;2023-05-23T14:00:17;21.60;99.90
46890;DHT22;32625;51.080;16.970;2023-05-23T14:03:12;21.50;99.90
46890;DHT22;32625;51.080;16.970;2023-05-23T14:05:41;21.40;99.90
46890;DHT22;32625;51.080;16.970;2023-05-23T14:08:08;21.40;99.90
46890;DHT22;32625;51.080;16.970;2023-05-23T14:10:37;21.30;99.90
46890;DHT22;32625;51.080;16.970;2023-05-23T14:13:05;21.20;99.90
46890;DHT22;32625;51.080;16.970;2023-05-23T14:16:13;21.00;99.90
46890;DHT22;32625;51.080;16.970;2023-05-23T14:18:40;20.90;99.90
46890;DHT22;32625;51.080;16.970;2023-05-23T14:21:07;20.80;99.90
46890;DHT22;32625;51.080;16.970;2023-05-23T14:23:38;20.80;99.90
46890;DHT22;32625;51.080;16.970;2023-05-23T14:26:05;20.70;99.90
46890;DHT22;32625;51.080;16.970;2023-05-23T14:28:33;20.80;99.90
46890;DHT22;32625;51.080;16.970;2023-05-23T14:31:00;20.90;99.90
46890;DHT22;32625;51.080;16.970;2023-05-23T14:33:27;21.10;99.90
46890;DHT22;32625;51.080;16.970;2023-05-23T14:39:16;21.00;99.90
46890;DHT22;32625;51.080;16.970;2023-05-23T14:41:43;20.90;99.90
46890;DHT22;32625;51.080;16.970;2023-05-23T14:44:38;20.90;99.90
46890;DHT22;32625;51.080;16.970;2023-05-23T14:47:05;20.80;99.90
46890;DHT22;32625;51.080;16.970;2023-05-23T14:49:32;20.70;99.90
46890;DHT22;32625;51.080;16.970;2023-05-23T14:51:59;20.60;99.90
46890;DHT22;32625;51.080;16.970;2023-05-23T14:54:26;20.40;99.90
46890;DHT22;32625;51.080;16.970;2023-05-23T14:56:56;20.40;99.90
46890;DHT22;32625;51.080;16.970;2023-05-23T14:59:23;20.40;99.90
46890;DHT22;32625;51.080;16.970;2023-05-23T15:01:50;20.40;99.90
46890;DHT22;32625;51.080;16.970;2023-05-23T15:04:18;20.50;99.90
46890;DHT22;32625;51.080;16.970;2023-05-23T15:06:45;20.70;99.90
46890;DHT22;32625;51.080;16.970;2023-05-23T15:09:14;20.80;99.90
46890;DHT22;32625;51.080;16.970;2023-05-23T15:11:43;20.90;99.90
46890;DHT22;32625;51.080;16.970;2023-05-23T15:14:11;21.00;99.90
46890;DHT22;32625;51.080;16.970;2023-05-23T15:16:38;21.00;99.90
46890;DHT22;32625;51.080;16.970;2023-05-23T15:19:06;21.20;99.90
46890;DHT22;32625;51.080;16.970;2023-05-23T15:21:33;21.30;99.90
46890;DHT22;32625;51.080;16.970;2023-05-23T15:24:00;21.30;99.90
46890;DHT22;32625;51.080;16.970;2023-05-23T15:26:27;21.30;99.90
46890;DHT22;32625;51.080;16.970;2023-05-23T15:28:55;21.40;99.90
46890;DHT22;32625;51.080;16.970;2023-05-23T15:31:22;21.30;99.90
46890;DHT22;32625;51.080;16.970;2023-05-23T15:33:49;21.20;99.90
46890;DHT22;32625;51.080;16.970;2023-05-23T15:36:16;21.20;99.90
46890;DHT22;32625;51.080;16.970;2023-05-23T15:38:44;21.00;99.90
46890;DHT22;32625;51.080;16.970;2023-05-23T15:41:11;20.80;99.90
46890;DHT22;32625;51.080;16.970;2023-05-23T15:43:42;20.50;99.90
46890;DHT22;32625;51.080;16.970;2023-05-23T15:46:09;20.20;99.90
46890;DHT22;32625;51.080;16.970;2023-05-23T15:48:37;20.10;99.90
46890;DHT22;32625;51.080;16.970;2023-05-23T15:51:29;20.00;99.90
46890;DHT22;32625;51.080;16.970;2023-05-23T15:53:58;19.80;99.90
46890;DHT22;32625;51.080;16.970;2023-05-23T15:56:27;19.70;99.90
46890;DHT22;32625;51.080;16.970;2023-05-23T15:58:54;19.70;99.90
46890;DHT22;32625;51.080;16.970;2023-05-23T16:01:22;19.60;99.90
46890;DHT22;32625;51.080;16.970;2023-05-23T16:03:49;19.60;99.90
46890;DHT22;32625;51.080;16.970;2023-05-23T16:06:16;19.60;99.90
46890;DHT22;32625;51.080;16.970;2023-05-23T16:08:47;19.60;99.90
46890;DHT22;32625;51.080;16.970;2023-05-23T16:11:14;19.60;99.90
46890;DHT22;32625;51.080;16.970;2023-05-23T16:13:42;19.50;99.90
46890;DHT22;32625;51.080;16.970;2023-05-23T16:16:09;19.50;99.90
46890;DHT22;32625;51.080;16.970;2023-05-23T16:18:36;19.50;99.90
46890;DHT22;32625;51.080;16.970;2023-05-23T16:21:03;19.40;99.90
46890;DHT22;32625;51.080;16.970;2023-05-23T16:23:31;19.40;99.90
46890;DHT22;32625;51.080;16.970;2023-05-23T16:25:58;19.30;99.90
46890;DHT22;32625;51.080;16.970;2023-05-23T16:28:26;19.30;99.90
46890;DHT22;32625;51.080;16.970;2023-05-23T16:30:53;19.30;99.90
46890;DHT22;32625;51.080;16.970;2023-05-23T16:33:22;19.20;99.90